sensor_id;sensor_type;location;lat;lon;timestamp;P1;durP1;ratioP1;P2;durP2;ratioP2
30613;SDS011;17381;51.690;5.270;2022-09-09T13:07:20;2.05;;;0.90;;
30613;SDS011;17381;51.690;5.270;2022-09-09T13:52:13;1.63;;;0.70;;
30613;SDS011;17381;51.690;5.270;2022-09-09T13:55:03;3.83;;;0.57;;
30613;SDS011;17381;51.690;5.270;2022-09-09T13:57:49;1.35;;;0.65;;
30613;SDS011;17381;51.690;5.270;2022-09-09T14:00:25;3.50;;;0.75;;
30613;SDS011;17381;51.690;5.270;2022-09-09T14:02:54;4.88;;;0.90;;
30613;SDS011;17381;51.690;5.270;2022-09-09T14:05:40;2.13;;;0.70;;
30613;SDS011;17381;51.690;5.270;2022-09-09T14:08:14;2.40;;;0.60;;
30613;SDS011;17381;51.690;5.270;2022-09-09T14:10:54;3.30;;;0.70;;
30613;SDS011;17381;51.690;5.270;2022-09-09T14:13:23;5.63;;;1.00;;
30613;SDS011;17381;51.690;5.270;2022-09-09T14:15:52;2.50;;;0.50;;
30613;SDS011;17381;51.690;5.270;2022-09-09T14:18:24;1.80;;;0.40;;
30613;SDS011;17381;51.690;5.270;2022-09-09T14:20:53;2.97;;;0.40;;
30613;SDS011;17381;51.690;5.270;2022-09-09T14:23:18;2.53;;;0.50;;
30613;SDS011;17381;51.690;5.270;2022-09-09T14:25:47;1.35;;;0.45;;
30613;SDS011;17381;51.690;5.270;2022-09-09T14:28:16;1.70;;;0.50;;
30613;SDS011;17381;51.690;5.270;2022-09-09T14:30:50;1.73;;;0.35;;
30613;SDS011;17381;51.690;5.270;2022-09-09T14:33:34;1.17;;;0.40;;
30613;SDS011;17381;51.690;5.270;2022-09-09T14:39:26;0.77;;;0.35;;
30613;SDS011;17381;51.690;5.270;2022-09-09T14:41:59;1.95;;;0.38;;
30613;SDS011;17381;51.690;5.270;2022-09-09T14:44:24;0.90;;;0.28;;
30613;SDS011;17381;51.690;5.270;2022-09-09T14:46:53;1.33;;;0.52;;
30613;SDS011;17381;51.690;5.270;2022-09-09T14:49:28;4.20;;;1.10;;
30613;SDS011;17381;51.690;5.270;2022-09-09T14:54:57;1.92;;;0.60;;
30613;SDS011;17381;51.690;5.270;2022-09-09T14:57:31;2.25;;;0.70;;
30613;SDS011;17381;51.690;5.270;2022-09-09T15:00:09;2.83;;;0.80;;
30613;SDS011;17381;51.690;5.270;2022-09-09T15:02:36;1.23;;;0.30;;
30613;SDS011;17381;51.690;5.270;2022-09-09T15:05:06;1.30;;;0.40;;
30613;SDS011;17381;51.690;5.270;2022-09-09T15:07:35;0.75;;;0.30;;
30613;SDS011;17381;51.690;5.270;2022-09-09T15:15:43;1.13;;;0.43;;
30613;SDS011;17381;51.690;5.270;2022-09-09T15:21:20;4.88;;;0.57;;
30613;SDS011;17381;51.690;5.270;2022-09-09T15:23:47;2.50;;;0.52;;
30613;SDS011;17381;51.690;5.270;2022-09-09T15:26:14;2.15;;;0.60;;
30613;SDS011;17381;51.690;5.270;2022-09-09T15:28:40;1.45;;;0.55;;
30613;SDS011;17381;51.690;5.270;2022-09-09T15:33:55;2.80;;;0.50;;
30613;SDS011;17381;51.690;5.270;2022-09-09T15:36:32;1.27;;;0.50;;
30613;SDS011;17381;51.690;5.270;2022-09-09T15:39:04;1.23;;;0.40;;
30613;SDS011;17381;51.690;5.270;2022-09-09T15:41:32;1.38;;;0.30;;
30613;SDS011;17381;51.690;5.270;2022-09-09T15:44:01;1.67;;;0.70;;
30613;SDS011;17381;51.690;5.270;2022-09-09T15:49:26;1.05;;;0.60;;
30613;SDS011;17381;51.690;5.270;2022-09-09T15:51:53;3.65;;;0.95;;
30613;SDS011;17381;51.690;5.270;2022-09-09T15:54:20;1.65;;;0.50;;
30613;SDS011;17381;51.690;5.270;2022-09-09T15:56:57;1.85;;;0.70;;
30613;SDS011;17381;51.690;5.270;2022-09-09T16:05:35;2.50;;;0.57;;
30613;SDS011;17381;51.690;5.270;2022-09-09T16:08:21;1.35;;;0.52;;
30613;SDS011;17381;51.690;5.270;2022-09-09T16:11:26;1.27;;;0.52;;
30613;SDS011;17381;51.690;5.270;2022-09-09T16:14:02;2.20;;;0.57;;
30613;SDS011;17381;51.690;5.270;2022-09-09T16:16:37;1.38;;;0.50;;
30613;SDS011;17381;51.690;5.270;2022-09-09T16:19:08;1.95;;;0.40;;
30613;SDS011;17381;51.690;5.270;2022-09-09T16:21:46;2.28;;;0.70;;
30613;SDS011;17381;51.690;5.270;2022-09-09T16:24:35;1.00;;;0.45;;
30613;SDS011;17381;51.690;5.270;2022-09-09T16:30:54;1.73;;;0.52;;
30613;SDS011;17381;51.690;5.270;2022-09-09T16:33:20;2.15;;;0.98;;
30613;SDS011;17381;51.690;5.270;2022-09-09T16:35:47;1.25;;;0.60;;
30613;SDS011;17381;51.690;5.270;2022-09-09T16:42:05;1.30;;;0.45;;
30613;SDS011;17381;51.690;5.270;2022-09-09T16:44:44;1.08;;;0.50;;
30613;SDS011;17381;51.690;5.270;2022-09-09T16:51:05;2.25;;;0.68;;
30613;SDS011;17381;51.690;5.270;2022-09-09T16:53:33;3.40;;;0.75;;
30613;SDS011;17381;51.690;5.270;2022-09-09T16:56:15;2.90;;;0.70;;
30613;SDS011;17381;51.690;5.270;2022-09-09T17:02:03;1.63;;;0.73;;
30613;SDS011;17381;51.690;5.270;2022-09-09T17:04:35;2.13;;;0.68;;
30613;SDS011;17381;51.690;5.270;2022-09-09T17:07:46;2.22;;;0.90;;
30613;SDS011;17381;51.690;5.270;2022-09-09T17:13:19;1.88;;;0.75;;
30613;SDS011;17381;51.690;5.270;2022-09-09T17:15:46;2.20;;;1.05;;
30613;SDS011;17381;51.690;5.270;2022-09-09T17:18:14;4.05;;;1.10;;
30613;SDS011;17381;51.690;5.270;2022-09-09T17:20:53;2.65;;;0.70;;
30613;SDS011;17381;51.690;5.270;2022-09-09T17:23:39;3.80;;;0.93;;
30613;SDS011;17381;51.690;5.270;2022-09-09T17:26:12;3.20;;;0.80;;
30613;SDS011;17381;51.690;5.270;2022-09-09T17:28:40;2.08;;;0.90;;
30613;SDS011;17381;51.690;5.270;2022-09-09T17:31:07;1.85;;;0.93;;
30613;SDS011;17381;51.690;5.270;2022-09-09T17:33:35;3.03;;;0.80;;
30613;SDS011;17381;51.690;5.270;2022-09-09T17:36:13;2.75;;;1.10;;
30613;SDS011;17381;51.690;5.270;2022-09-09T17:38:49;2.30;;;1.10;;
30613;SDS011;17381;51.690;5.270;2022-09-09T17:41:20;3.58;;;1.23;;
30613;SDS011;17381;51.690;5.270;2022-09-09T17:43:50;2.95;;;0.80;;
30613;SDS011;17381;51.690;5.270;2022-09-09T17:46:32;1.20;;;0.57;;
30613;SDS011;17381;51.690;5.270;2022-09-09T17:49:21;1.98;;;1.00;;
30613;SDS011;17381;51.690;5.270;2022-09-09T17:51:46;2.00;;;0.68;;
30613;SDS011;17381;51.690;5.270;2022-09-09T17:54:15;2.15;;;0.68;;
30613;SDS011;17381;51.690;5.270;2022-09-09T17:56:43;2.75;;;1.05;;
30613;SDS011;17381;51.690;5.270;2022-09-09T17:59:22;3.83;;;1.10;;
30613;SDS011;17381;51.690;5.270;2022-09-09T18:01:50;1.55;;;0.70;;
30613;SDS011;17381;51.690;5.270;2022-09-09T18:04:16;1.77;;;1.13;;
30613;SDS011;17381;51.690;5.270;2022-09-09T18:07:04;1.38;;;0.60;;
30613;SDS011;17381;51.690;5.270;2022-09-09T18:09:33;2.45;;;0.98;;
30613;SDS011;17381;51.690;5.270;2022-09-09T18:11:59;4.80;;;1.30;;
30613;SDS011;17381;51.690;5.270;2022-09-09T18:14:31;2.10;;;0.95;;
30613;SDS011;17381;51.690;5.270;2022-09-09T18:17:07;3.30;;;1.17;;
30613;SDS011;17381;51.690;5.270;2022-09-09T18:19:41;3.72;;;0.90;;
30613;SDS011;17381;51.690;5.270;2022-09-09T18:22:21;2.00;;;0.88;;
30613;SDS011;17381;51.690;5.270;2022-09-09T18:24:54;1.95;;;0.98;;
30613;SDS011;17381;51.690;5.270;2022-09-09T18:27:24;4.28;;;0.98;;
30613;SDS011;17381;51.690;5.270;2022-09-09T18:29:53;3.60;;;0.88;;
30613;SDS011;17381;51.690;5.270;2022-09-09T18:32:32;2.55;;;1.13;;
30613;SDS011;17381;51.690;5.270;2022-09-09T18:35:04;3.03;;;1.02;;
30613;SDS011;17381;51.690;5.270;2022-09-09T18:37:37;3.58;;;1.38;;
30613;SDS011;17381;51.690;5.270;2022-09-09T18:40:33;7.53;;;1.67;;
30613;SDS011;17381;51.690;5.270;2022-09-09T18:43:05;2.33;;;0.98;;
30613;SDS011;17381;51.690;5.270;2022-09-09T18:45:47;2.13;;;0.93;;
30613;SDS011;17381;51.690;5.270;2022-09-09T18:48:23;2.70;;;1.20;;
30613;SDS011;17381;51.690;5.270;2022-09-09T18:51:10;2.70;;;1.00;;
30613;SDS011;17381;51.690;5.270;2022-09-09T18:53:41;4.28;;;1.50;;
30613;SDS011;17381;51.690;5.270;2022-09-09T18:56:27;4.65;;;1.33;;
30613;SDS011;17381;51.690;5.270;2022-09-09T18:59:02;4.38;;;1.08;;
30613;SDS011;17381;51.690;5.270;2022-09-09T19:01:44;3.08;;;1.27;;
30613;SDS011;17381;51.690;5.270;2022-09-09T19:04:31;3.42;;;1.20;;
30613;SDS011;17381;51.690;5.270;2022-09-09T19:07:06;3.90;;;1.23;;
30613;SDS011;17381;51.690;5.270;2022-09-09T19:09:38;2.63;;;0.90;;
30613;SDS011;17381;51.690;5.270;2022-09-09T19:12:21;2.22;;;0.90;;
30613;SDS011;17381;51.690;5.270;2022-09-09T19:15:06;2.85;;;1.10;;
30613;SDS011;17381;51.690;5.270;2022-09-09T19:23:39;2.60;;;1.20;;
30613;SDS011;17381;51.690;5.270;2022-09-09T19:26:25;2.58;;;1.15;;
30613;SDS011;17381;51.690;5.270;2022-09-09T19:29:11;2.50;;;1.00;;
30613;SDS011;17381;51.690;5.270;2022-09-09T19:32:09;3.22;;;1.30;;
30613;SDS011;17381;51.690;5.270;2022-09-09T19:34:50;3.50;;;1.10;;
30613;SDS011;17381;51.690;5.270;2022-09-09T19:37:20;3.95;;;1.00;;
30613;SDS011;17381;51.690;5.270;2022-09-09T19:40:03;2.80;;;1.20;;
30613;SDS011;17381;51.690;5.270;2022-09-09T19:42:58;3.20;;;1.10;;
30613;SDS011;17381;51.690;5.270;2022-09-09T19:46:07;5.13;;;1.38;;
30613;SDS011;17381;51.690;5.270;2022-09-09T20:00:11;3.92;;;1.20;;
30613;SDS011;17381;51.690;5.270;2022-09-09T20:03:43;2.83;;;1.23;;
30613;SDS011;17381;51.690;5.270;2022-09-09T20:06:40;4.22;;;1.20;;
30613;SDS011;17381;51.690;5.270;2022-09-09T20:09:47;2.83;;;1.20;;
30613;SDS011;17381;51.690;5.270;2022-09-09T20:19:59;2.53;;;1.23;;
30613;SDS011;17381;51.690;5.270;2022-09-09T20:22:45;4.28;;;1.60;;
30613;SDS011;17381;51.690;5.270;2022-09-09T20:25:17;2.72;;;1.30;;
30613;SDS011;17381;51.690;5.270;2022-09-09T20:28:00;3.97;;;1.80;;
30613;SDS011;17381;51.690;5.270;2022-09-09T20:30:58;5.03;;;1.60;;
30613;SDS011;17381;51.690;5.270;2022-09-09T20:34:15;2.97;;;1.33;;
30613;SDS011;17381;51.690;5.270;2022-09-09T20:40:45;4.30;;;1.30;;
30613;SDS011;17381;51.690;5.270;2022-09-09T20:43:13;2.72;;;1.30;;
30613;SDS011;17381;51.690;5.270;2022-09-09T20:46:28;4.75;;;1.40;;
30613;SDS011;17381;51.690;5.270;2022-09-09T20:49:50;3.95;;;1.77;;
30613;SDS011;17381;51.690;5.270;2022-09-09T20:53:12;4.72;;;1.98;;
30613;SDS011;17381;51.690;5.270;2022-09-09T20:56:22;3.92;;;1.83;;
30613;SDS011;17381;51.690;5.270;2022-09-09T20:59:04;3.20;;;1.70;;
30613;SDS011;17381;51.690;5.270;2022-09-09T21:01:48;4.63;;;2.35;;
30613;SDS011;17381;51.690;5.270;2022-09-09T21:04:20;3.22;;;1.65;;
30613;SDS011;17381;51.690;5.270;2022-09-09T21:07:19;4.65;;;1.60;;
30613;SDS011;17381;51.690;5.270;2022-09-09T21:10:03;4.17;;;1.97;;
30613;SDS011;17381;51.690;5.270;2022-09-09T21:12:59;4.28;;;1.30;;
30613;SDS011;17381;51.690;5.270;2022-09-09T21:15:55;3.95;;;1.73;;
30613;SDS011;17381;51.690;5.270;2022-09-09T21:19:04;5.00;;;1.90;;
30613;SDS011;17381;51.690;5.270;2022-09-09T21:22:16;6.72;;;1.60;;
30613;SDS011;17381;51.690;5.270;2022-09-09T21:24:56;4.13;;;1.40;;
30613;SDS011;17381;51.690;5.270;2022-09-09T21:27:35;2.92;;;1.40;;
30613;SDS011;17381;51.690;5.270;2022-09-09T21:30:22;9.82;;;1.75;;
30613;SDS011;17381;51.690;5.270;2022-09-09T21:35:45;5.85;;;1.27;;
30613;SDS011;17381;51.690;5.270;2022-09-09T21:38:48;3.38;;;1.38;;
30613;SDS011;17381;51.690;5.270;2022-09-09T21:41:14;4.70;;;1.20;;
30613;SDS011;17381;51.690;5.270;2022-09-09T21:44:03;5.40;;;0.90;;
30613;SDS011;17381;51.690;5.270;2022-09-09T21:47:42;6.70;;;1.00;;
30613;SDS011;17381;51.690;5.270;2022-09-09T21:57:50;3.95;;;1.00;;
30613;SDS011;17381;51.690;5.270;2022-09-09T22:00:19;3.97;;;1.45;;
30613;SDS011;17381;51.690;5.270;2022-09-09T22:03:15;2.85;;;1.15;;
30613;SDS011;17381;51.690;5.270;2022-09-09T22:09:27;5.40;;;1.45;;
30613;SDS011;17381;51.690;5.270;2022-09-09T22:12:52;4.95;;;1.20;;
30613;SDS011;17381;51.690;5.270;2022-09-09T22:20:15;5.60;;;0.93;;
30613;SDS011;17381;51.690;5.270;2022-09-09T22:22:53;3.50;;;0.85;;
30613;SDS011;17381;51.690;5.270;2022-09-09T22:26:07;3.92;;;1.48;;
30613;SDS011;17381;51.690;5.270;2022-09-09T22:28:58;3.30;;;1.02;;
30613;SDS011;17381;51.690;5.270;2022-09-09T22:32:02;10.00;;;1.90;;
30613;SDS011;17381;51.690;5.270;2022-09-09T22:46:17;8.45;;;1.15;;
30613;SDS011;17381;51.690;5.270;2022-09-09T22:52:07;3.10;;;0.73;;
30613;SDS011;17381;51.690;5.270;2022-09-09T22:58:43;2.30;;;0.70;;
30613;SDS011;17381;51.690;5.270;2022-09-09T23:01:44;4.78;;;1.05;;
30613;SDS011;17381;51.690;5.270;2022-09-09T23:04:26;2.38;;;0.70;;
30613;SDS011;17381;51.690;5.270;2022-09-09T23:11:44;4.72;;;0.90;;
30613;SDS011;17381;51.690;5.270;2022-09-09T23:14:27;3.33;;;1.05;;
30613;SDS011;17381;51.690;5.270;2022-09-09T23:21:01;6.63;;;1.98;;
30613;SDS011;17381;51.690;5.270;2022-09-09T23:28:16;4.30;;;0.90;;
30613;SDS011;17381;51.690;5.270;2022-09-09T23:30:50;2.80;;;0.80;;
30613;SDS011;17381;51.690;5.270;2022-09-09T23:33:38;2.88;;;1.25;;
30613;SDS011;17381;51.690;5.270;2022-09-09T23:36:05;5.05;;;1.40;;
30613;SDS011;17381;51.690;5.270;2022-09-09T23:46:32;2.33;;;0.95;;
30613;SDS011;17381;51.690;5.270;2022-09-09T23:49:33;3.55;;;1.50;;
30613;SDS011;17381;51.690;5.270;2022-09-09T23:52:23;4.45;;;1.10;;
30613;SDS011;17381;51.690;5.270;2022-09-09T23:55:01;3.80;;;1.42;;
30613;SDS011;17381;51.690;5.270;2022-09-09T23:57:32;6.68;;;1.58;;
